sensor_id;sensor_type;location;lat;lon;timestamp;P1;durP1;ratioP1;P2;durP2;ratioP2
67904;SDS011;54709;43.614;1.576;2022-12-24T00:01:11;23.80;;;12.50;;
67904;SDS011;54709;43.614;1.576;2022-12-24T00:03:37;21.70;;;13.00;;
67904;SDS011;54709;43.614;1.576;2022-12-24T00:06:03;20.00;;;12.80;;
67904;SDS011;54709;43.614;1.576;2022-12-24T00:08:30;20.15;;;11.68;;
67904;SDS011;54709;43.614;1.576;2022-12-24T00:10:55;18.13;;;11.98;;
67904;SDS011;54709;43.614;1.576;2022-12-24T00:13:21;21.27;;;12.38;;
67904;SDS011;54709;43.614;1.576;2022-12-24T00:15:46;19.90;;;12.57;;
67904;SDS011;54709;43.614;1.576;2022-12-24T00:18:12;19.80;;;11.68;;
67904;SDS011;54709;43.614;1.576;2022-12-24T00:20:37;22.35;;;12.48;;
67904;SDS011;54709;43.614;1.576;2022-12-24T00:23:02;21.33;;;12.93;;
67904;SDS011;54709;43.614;1.576;2022-12-24T00:25:28;18.75;;;12.07;;
67904;SDS011;54709;43.614;1.576;2022-12-24T00:27:53;19.33;;;12.30;;
67904;SDS011;54709;43.614;1.576;2022-12-24T00:30:19;22.30;;;13.00;;
67904;SDS011;54709;43.614;1.576;2022-12-24T00:32:44;21.17;;;12.75;;
67904;SDS011;54709;43.614;1.576;2022-12-24T00:35:10;21.13;;;12.32;;
67904;SDS011;54709;43.614;1.576;2022-12-24T00:37:35;18.67;;;12.35;;
67904;SDS011;54709;43.614;1.576;2022-12-24T00:40:00;20.90;;;12.95;;
67904;SDS011;54709;43.614;1.576;2022-12-24T00:42:26;20.67;;;12.52;;
67904;SDS011;54709;43.614;1.576;2022-12-24T00:44:51;19.15;;;12.90;;
67904;SDS011;54709;43.614;1.576;2022-12-24T00:47:16;19.35;;;13.05;;
67904;SDS011;54709;43.614;1.576;2022-12-24T00:49:42;19.48;;;12.45;;
67904;SDS011;54709;43.614;1.576;2022-12-24T00:52:07;18.65;;;12.75;;
67904;SDS011;54709;43.614;1.576;2022-12-24T00:54:33;19.52;;;13.25;;
67904;SDS011;54709;43.614;1.576;2022-12-24T00:56:58;21.58;;;13.20;;
67904;SDS011;54709;43.614;1.576;2022-12-24T00:59:23;21.73;;;12.88;;
67904;SDS011;54709;43.614;1.576;2022-12-24T01:01:49;20.95;;;12.98;;
67904;SDS011;54709;43.614;1.576;2022-12-24T01:04:14;20.48;;;13.02;;
67904;SDS011;54709;43.614;1.576;2022-12-24T01:06:58;20.98;;;12.55;;
67904;SDS011;54709;43.614;1.576;2022-12-24T01:09:23;18.83;;;12.57;;
67904;SDS011;54709;43.614;1.576;2022-12-24T01:11:49;20.02;;;12.27;;
67904;SDS011;54709;43.614;1.576;2022-12-24T01:14:14;20.33;;;12.05;;
67904;SDS011;54709;43.614;1.576;2022-12-24T01:16:40;18.05;;;11.75;;
67904;SDS011;54709;43.614;1.576;2022-12-24T01:19:05;17.85;;;10.95;;
67904;SDS011;54709;43.614;1.576;2022-12-24T01:21:30;15.23;;;10.80;;
67904;SDS011;54709;43.614;1.576;2022-12-24T01:23:56;17.50;;;10.85;;
67904;SDS011;54709;43.614;1.576;2022-12-24T01:26:21;18.52;;;11.07;;
67904;SDS011;54709;43.614;1.576;2022-12-24T01:28:46;16.55;;;10.60;;
67904;SDS011;54709;43.614;1.576;2022-12-24T01:31:12;15.25;;;10.52;;
67904;SDS011;54709;43.614;1.576;2022-12-24T01:33:40;15.13;;;9.90;;
67904;SDS011;54709;43.614;1.576;2022-12-24T01:36:07;19.75;;;10.98;;
67904;SDS011;54709;43.614;1.576;2022-12-24T01:38:33;16.20;;;10.32;;
67904;SDS011;54709;43.614;1.576;2022-12-24T01:40:58;14.55;;;10.15;;
67904;SDS011;54709;43.614;1.576;2022-12-24T01:43:42;18.20;;;10.18;;
67904;SDS011;54709;43.614;1.576;2022-12-24T01:46:26;15.15;;;9.88;;
67904;SDS011;54709;43.614;1.576;2022-12-24T01:49:03;14.15;;;9.30;;
67904;SDS011;54709;43.614;1.576;2022-12-24T01:51:38;17.75;;;10.40;;
67904;SDS011;54709;43.614;1.576;2022-12-24T01:56:31;13.02;;;9.73;;
67904;SDS011;54709;43.614;1.576;2022-12-24T01:58:59;15.20;;;10.35;;
67904;SDS011;54709;43.614;1.576;2022-12-24T02:01:27;15.57;;;10.35;;
67904;SDS011;54709;43.614;1.576;2022-12-24T02:03:52;17.88;;;10.90;;
67904;SDS011;54709;43.614;1.576;2022-12-24T02:06:18;18.52;;;10.48;;
67904;SDS011;54709;43.614;1.576;2022-12-24T02:08:45;15.77;;;10.43;;
67904;SDS011;54709;43.614;1.576;2022-12-24T02:11:14;15.82;;;9.90;;
67904;SDS011;54709;43.614;1.576;2022-12-24T02:13:42;18.75;;;10.75;;
67904;SDS011;54709;43.614;1.576;2022-12-24T02:16:34;14.20;;;10.48;;
67904;SDS011;54709;43.614;1.576;2022-12-24T02:19:49;15.70;;;10.35;;
67904;SDS011;54709;43.614;1.576;2022-12-24T02:22:05;15.63;;;10.57;;
67904;SDS011;54709;43.614;1.576;2022-12-24T02:27:16;17.38;;;10.48;;
67904;SDS011;54709;43.614;1.576;2022-12-24T02:32:38;20.02;;;10.38;;
67904;SDS011;54709;43.614;1.576;2022-12-24T02:35:09;16.15;;;10.32;;
67904;SDS011;54709;43.614;1.576;2022-12-24T02:37:48;15.15;;;10.80;;
67904;SDS011;54709;43.614;1.576;2022-12-24T02:40:19;13.73;;;9.45;;
67904;SDS011;54709;43.614;1.576;2022-12-24T02:42:49;14.73;;;10.00;;
67904;SDS011;54709;43.614;1.576;2022-12-24T02:45:19;13.25;;;9.02;;
67904;SDS011;54709;43.614;1.576;2022-12-24T02:47:47;12.93;;;9.23;;
67904;SDS011;54709;43.614;1.576;2022-12-24T02:50:14;13.02;;;10.15;;
67904;SDS011;54709;43.614;1.576;2022-12-24T02:52:44;14.00;;;10.20;;
67904;SDS011;54709;43.614;1.576;2022-12-24T02:55:17;13.32;;;10.30;;
67904;SDS011;54709;43.614;1.576;2022-12-24T03:09:17;13.88;;;10.23;;
67904;SDS011;54709;43.614;1.576;2022-12-24T03:11:49;16.48;;;10.10;;
67904;SDS011;54709;43.614;1.576;2022-12-24T03:14:24;16.40;;;10.88;;
67904;SDS011;54709;43.614;1.576;2022-12-24T03:16:50;14.52;;;10.02;;
67904;SDS011;54709;43.614;1.576;2022-12-24T03:19:15;15.65;;;9.98;;
67904;SDS011;54709;43.614;1.576;2022-12-24T03:21:41;13.80;;;10.18;;
67904;SDS011;54709;43.614;1.576;2022-12-24T03:24:07;16.48;;;10.75;;
67904;SDS011;54709;43.614;1.576;2022-12-24T03:26:33;14.68;;;10.57;;
67904;SDS011;54709;43.614;1.576;2022-12-24T03:28:59;15.73;;;10.20;;
67904;SDS011;54709;43.614;1.576;2022-12-24T03:31:38;12.80;;;9.50;;
67904;SDS011;54709;43.614;1.576;2022-12-24T03:34:07;16.50;;;10.20;;
67904;SDS011;54709;43.614;1.576;2022-12-24T03:36:33;13.70;;;9.88;;
67904;SDS011;54709;43.614;1.576;2022-12-24T03:38:58;14.70;;;10.05;;
67904;SDS011;54709;43.614;1.576;2022-12-24T03:41:24;13.75;;;9.48;;
67904;SDS011;54709;43.614;1.576;2022-12-24T03:43:49;14.05;;;9.52;;
67904;SDS011;54709;43.614;1.576;2022-12-24T03:46:15;15.10;;;9.38;;
67904;SDS011;54709;43.614;1.576;2022-12-24T03:48:40;14.80;;;9.00;;
67904;SDS011;54709;43.614;1.576;2022-12-24T03:51:13;16.58;;;10.13;;
67904;SDS011;54709;43.614;1.576;2022-12-24T03:53:42;14.13;;;9.93;;
67904;SDS011;54709;43.614;1.576;2022-12-24T03:56:08;12.80;;;9.48;;
67904;SDS011;54709;43.614;1.576;2022-12-24T03:58:33;13.57;;;9.82;;
67904;SDS011;54709;43.614;1.576;2022-12-24T04:00:58;18.38;;;10.50;;
67904;SDS011;54709;43.614;1.576;2022-12-24T04:03:24;16.77;;;10.20;;
67904;SDS011;54709;43.614;1.576;2022-12-24T04:05:59;13.68;;;9.50;;
67904;SDS011;54709;43.614;1.576;2022-12-24T04:08:28;13.70;;;9.23;;
67904;SDS011;54709;43.614;1.576;2022-12-24T04:10:54;17.35;;;10.35;;
67904;SDS011;54709;43.614;1.576;2022-12-24T04:13:19;16.92;;;10.30;;
67904;SDS011;54709;43.614;1.576;2022-12-24T04:15:45;18.52;;;10.57;;
67904;SDS011;54709;43.614;1.576;2022-12-24T04:18:10;14.90;;;10.40;;
67904;SDS011;54709;43.614;1.576;2022-12-24T04:20:35;18.13;;;10.90;;
67904;SDS011;54709;43.614;1.576;2022-12-24T04:23:01;11.52;;;9.00;;
67904;SDS011;54709;43.614;1.576;2022-12-24T04:25:26;14.50;;;9.75;;
67904;SDS011;54709;43.614;1.576;2022-12-24T04:27:51;14.82;;;9.88;;
67904;SDS011;54709;43.614;1.576;2022-12-24T04:30:17;12.85;;;9.30;;
67904;SDS011;54709;43.614;1.576;2022-12-24T04:32:42;14.25;;;9.63;;
67904;SDS011;54709;43.614;1.576;2022-12-24T04:35:08;13.20;;;9.98;;
67904;SDS011;54709;43.614;1.576;2022-12-24T04:37:33;15.73;;;10.07;;
67904;SDS011;54709;43.614;1.576;2022-12-24T04:39:59;13.43;;;9.02;;
67904;SDS011;54709;43.614;1.576;2022-12-24T04:42:24;14.15;;;9.00;;
67904;SDS011;54709;43.614;1.576;2022-12-24T04:44:50;16.63;;;9.55;;
67904;SDS011;54709;43.614;1.576;2022-12-24T04:47:15;12.95;;;8.80;;
67904;SDS011;54709;43.614;1.576;2022-12-24T04:49:40;17.30;;;9.00;;
67904;SDS011;54709;43.614;1.576;2022-12-24T04:52:06;16.17;;;9.05;;
67904;SDS011;54709;43.614;1.576;2022-12-24T04:54:31;15.23;;;9.80;;
67904;SDS011;54709;43.614;1.576;2022-12-24T04:56:56;13.60;;;10.45;;
67904;SDS011;54709;43.614;1.576;2022-12-24T04:59:22;16.52;;;9.50;;
67904;SDS011;54709;43.614;1.576;2022-12-24T05:01:48;16.88;;;10.75;;
67904;SDS011;54709;43.614;1.576;2022-12-24T05:04:13;14.52;;;10.23;;
67904;SDS011;54709;43.614;1.576;2022-12-24T05:06:39;13.70;;;10.15;;
67904;SDS011;54709;43.614;1.576;2022-12-24T05:09:04;15.57;;;10.48;;
67904;SDS011;54709;43.614;1.576;2022-12-24T05:11:29;14.80;;;10.50;;
67904;SDS011;54709;43.614;1.576;2022-12-24T05:13:55;17.58;;;10.52;;
67904;SDS011;54709;43.614;1.576;2022-12-24T05:16:21;14.30;;;10.90;;
67904;SDS011;54709;43.614;1.576;2022-12-24T05:18:47;16.35;;;10.80;;
67904;SDS011;54709;43.614;1.576;2022-12-24T05:21:13;18.02;;;10.75;;
67904;SDS011;54709;43.614;1.576;2022-12-24T05:23:43;15.23;;;10.88;;
67904;SDS011;54709;43.614;1.576;2022-12-24T05:26:34;14.10;;;10.05;;
67904;SDS011;54709;43.614;1.576;2022-12-24T05:29:05;15.68;;;10.45;;
67904;SDS011;54709;43.614;1.576;2022-12-24T05:31:32;17.38;;;9.95;;
67904;SDS011;54709;43.614;1.576;2022-12-24T05:33:58;14.75;;;8.98;;
67904;SDS011;54709;43.614;1.576;2022-12-24T05:36:24;12.80;;;9.32;;
67904;SDS011;54709;43.614;1.576;2022-12-24T05:38:50;12.90;;;9.63;;
67904;SDS011;54709;43.614;1.576;2022-12-24T05:41:15;15.65;;;10.45;;
67904;SDS011;54709;43.614;1.576;2022-12-24T05:43:40;14.10;;;9.88;;
67904;SDS011;54709;43.614;1.576;2022-12-24T05:46:07;13.50;;;9.45;;
67904;SDS011;54709;43.614;1.576;2022-12-24T05:48:33;12.98;;;9.13;;
67904;SDS011;54709;43.614;1.576;2022-12-24T05:51:02;15.80;;;9.77;;
67904;SDS011;54709;43.614;1.576;2022-12-24T05:53:29;15.45;;;9.75;;
67904;SDS011;54709;43.614;1.576;2022-12-24T05:56:00;14.50;;;9.43;;
67904;SDS011;54709;43.614;1.576;2022-12-24T05:58:27;15.32;;;9.50;;
67904;SDS011;54709;43.614;1.576;2022-12-24T06:00:52;15.82;;;9.82;;
67904;SDS011;54709;43.614;1.576;2022-12-24T06:03:18;13.25;;;9.52;;
67904;SDS011;54709;43.614;1.576;2022-12-24T06:05:43;14.35;;;9.25;;
67904;SDS011;54709;43.614;1.576;2022-12-24T06:08:09;13.80;;;9.02;;
67904;SDS011;54709;43.614;1.576;2022-12-24T06:10:34;15.30;;;9.82;;
67904;SDS011;54709;43.614;1.576;2022-12-24T06:12:59;13.63;;;9.05;;
67904;SDS011;54709;43.614;1.576;2022-12-24T06:15:25;12.32;;;9.30;;
67904;SDS011;54709;43.614;1.576;2022-12-24T06:17:50;12.95;;;8.68;;
67904;SDS011;54709;43.614;1.576;2022-12-24T06:20:15;11.90;;;8.75;;
67904;SDS011;54709;43.614;1.576;2022-12-24T06:22:41;14.93;;;8.90;;
67904;SDS011;54709;43.614;1.576;2022-12-24T06:25:06;16.15;;;9.38;;
67904;SDS011;54709;43.614;1.576;2022-12-24T06:27:32;14.60;;;8.98;;
67904;SDS011;54709;43.614;1.576;2022-12-24T06:29:58;13.60;;;8.60;;
67904;SDS011;54709;43.614;1.576;2022-12-24T06:32:23;11.50;;;8.13;;
67904;SDS011;54709;43.614;1.576;2022-12-24T06:34:48;12.57;;;8.88;;
67904;SDS011;54709;43.614;1.576;2022-12-24T06:37:14;14.93;;;9.13;;
67904;SDS011;54709;43.614;1.576;2022-12-24T06:39:43;12.55;;;8.88;;
67904;SDS011;54709;43.614;1.576;2022-12-24T06:42:10;11.40;;;7.82;;
67904;SDS011;54709;43.614;1.576;2022-12-24T06:44:36;10.60;;;8.27;;
67904;SDS011;54709;43.614;1.576;2022-12-24T06:47:01;16.45;;;9.07;;
67904;SDS011;54709;43.614;1.576;2022-12-24T06:49:26;15.25;;;8.38;;
67904;SDS011;54709;43.614;1.576;2022-12-24T06:51:52;13.60;;;8.70;;
67904;SDS011;54709;43.614;1.576;2022-12-24T06:54:17;12.77;;;7.60;;
67904;SDS011;54709;43.614;1.576;2022-12-24T06:56:43;11.68;;;7.28;;
67904;SDS011;54709;43.614;1.576;2022-12-24T06:59:08;11.55;;;7.38;;
67904;SDS011;54709;43.614;1.576;2022-12-24T07:01:33;10.60;;;7.18;;
67904;SDS011;54709;43.614;1.576;2022-12-24T07:03:59;13.38;;;7.53;;
67904;SDS011;54709;43.614;1.576;2022-12-24T07:06:25;10.45;;;7.25;;
67904;SDS011;54709;43.614;1.576;2022-12-24T07:08:52;11.18;;;7.07;;
67904;SDS011;54709;43.614;1.576;2022-12-24T07:11:17;8.68;;;6.85;;
67904;SDS011;54709;43.614;1.576;2022-12-24T07:13:43;12.05;;;7.53;;
67904;SDS011;54709;43.614;1.576;2022-12-24T07:16:10;12.82;;;7.10;;
67904;SDS011;54709;43.614;1.576;2022-12-24T07:18:35;11.68;;;7.50;;
67904;SDS011;54709;43.614;1.576;2022-12-24T07:21:02;11.35;;;6.80;;
67904;SDS011;54709;43.614;1.576;2022-12-24T07:23:28;11.98;;;6.85;;
67904;SDS011;54709;43.614;1.576;2022-12-24T07:25:55;12.00;;;6.93;;
67904;SDS011;54709;43.614;1.576;2022-12-24T07:28:24;13.05;;;7.30;;
67904;SDS011;54709;43.614;1.576;2022-12-24T07:30:50;13.00;;;7.45;;
67904;SDS011;54709;43.614;1.576;2022-12-24T07:33:15;11.68;;;7.20;;
67904;SDS011;54709;43.614;1.576;2022-12-24T07:35:40;12.85;;;7.25;;
67904;SDS011;54709;43.614;1.576;2022-12-24T07:38:06;12.43;;;8.10;;
67904;SDS011;54709;43.614;1.576;2022-12-24T07:40:32;12.75;;;7.93;;
67904;SDS011;54709;43.614;1.576;2022-12-24T07:42:58;13.50;;;6.70;;
67904;SDS011;54709;43.614;1.576;2022-12-24T07:45:24;9.32;;;6.50;;
67904;SDS011;54709;43.614;1.576;2022-12-24T07:47:49;10.60;;;6.85;;
67904;SDS011;54709;43.614;1.576;2022-12-24T07:50:15;11.20;;;7.30;;
67904;SDS011;54709;43.614;1.576;2022-12-24T07:52:40;13.23;;;7.03;;
67904;SDS011;54709;43.614;1.576;2022-12-24T07:55:05;13.57;;;7.45;;
67904;SDS011;54709;43.614;1.576;2022-12-24T07:57:31;12.13;;;7.20;;
67904;SDS011;54709;43.614;1.576;2022-12-24T07:59:56;12.93;;;7.40;;
67904;SDS011;54709;43.614;1.576;2022-12-24T08:02:22;13.63;;;9.38;;
67904;SDS011;54709;43.614;1.576;2022-12-24T08:04:47;14.25;;;9.40;;
67904;SDS011;54709;43.614;1.576;2022-12-24T08:07:13;13.25;;;7.43;;
67904;SDS011;54709;43.614;1.576;2022-12-24T08:09:38;11.05;;;6.90;;
67904;SDS011;54709;43.614;1.576;2022-12-24T08:12:03;13.73;;;7.05;;
67904;SDS011;54709;43.614;1.576;2022-12-24T08:14:29;13.95;;;7.53;;
67904;SDS011;54709;43.614;1.576;2022-12-24T08:16:55;14.30;;;6.85;;
67904;SDS011;54709;43.614;1.576;2022-12-24T08:19:21;12.27;;;6.85;;
67904;SDS011;54709;43.614;1.576;2022-12-24T08:21:47;11.82;;;6.82;;
67904;SDS011;54709;43.614;1.576;2022-12-24T08:24:12;10.95;;;6.75;;
67904;SDS011;54709;43.614;1.576;2022-12-24T08:26:38;9.35;;;6.38;;
67904;SDS011;54709;43.614;1.576;2022-12-24T08:29:03;12.38;;;8.25;;
67904;SDS011;54709;43.614;1.576;2022-12-24T08:31:29;13.75;;;8.00;;
67904;SDS011;54709;43.614;1.576;2022-12-24T08:34:00;12.80;;;8.70;;
67904;SDS011;54709;43.614;1.576;2022-12-24T08:36:29;13.38;;;8.35;;
67904;SDS011;54709;43.614;1.576;2022-12-24T08:38:54;12.68;;;8.00;;
67904;SDS011;54709;43.614;1.576;2022-12-24T08:41:19;14.30;;;8.35;;
67904;SDS011;54709;43.614;1.576;2022-12-24T08:43:45;20.17;;;8.70;;
67904;SDS011;54709;43.614;1.576;2022-12-24T08:46:10;12.13;;;8.65;;
67904;SDS011;54709;43.614;1.576;2022-12-24T08:48:36;17.00;;;8.48;;
67904;SDS011;54709;43.614;1.576;2022-12-24T08:51:06;12.65;;;7.78;;
67904;SDS011;54709;43.614;1.576;2022-12-24T08:53:34;16.52;;;9.80;;
67904;SDS011;54709;43.614;1.576;2022-12-24T08:56:03;18.15;;;9.50;;
67904;SDS011;54709;43.614;1.576;2022-12-24T08:58:30;15.63;;;9.13;;
67904;SDS011;54709;43.614;1.576;2022-12-24T09:00:56;14.40;;;9.40;;
67904;SDS011;54709;43.614;1.576;2022-12-24T09:03:22;13.95;;;8.23;;
67904;SDS011;54709;43.614;1.576;2022-12-24T09:05:47;14.45;;;8.48;;
67904;SDS011;54709;43.614;1.576;2022-12-24T09:08:13;11.65;;;7.38;;
67904;SDS011;54709;43.614;1.576;2022-12-24T09:10:38;13.25;;;7.32;;
67904;SDS011;54709;43.614;1.576;2022-12-24T09:13:04;15.57;;;6.90;;
67904;SDS011;54709;43.614;1.576;2022-12-24T09:15:29;14.20;;;7.88;;
67904;SDS011;54709;43.614;1.576;2022-12-24T09:17:55;12.98;;;7.93;;
67904;SDS011;54709;43.614;1.576;2022-12-24T09:20:20;13.18;;;8.18;;
67904;SDS011;54709;43.614;1.576;2022-12-24T09:22:46;11.38;;;7.40;;
67904;SDS011;54709;43.614;1.576;2022-12-24T09:25:11;13.45;;;7.88;;
67904;SDS011;54709;43.614;1.576;2022-12-24T09:27:37;12.57;;;6.80;;
67904;SDS011;54709;43.614;1.576;2022-12-24T09:30:03;11.00;;;6.30;;
67904;SDS011;54709;43.614;1.576;2022-12-24T09:32:29;9.90;;;5.93;;
67904;SDS011;54709;43.614;1.576;2022-12-24T09:34:55;11.30;;;5.50;;
67904;SDS011;54709;43.614;1.576;2022-12-24T09:37:20;10.07;;;5.90;;
67904;SDS011;54709;43.614;1.576;2022-12-24T09:39:45;9.70;;;6.40;;
67904;SDS011;54709;43.614;1.576;2022-12-24T09:47:28;12.00;;;6.18;;
67904;SDS011;54709;43.614;1.576;2022-12-24T09:50:03;10.38;;;6.95;;
67904;SDS011;54709;43.614;1.576;2022-12-24T09:55:06;14.90;;;6.85;;
67904;SDS011;54709;43.614;1.576;2022-12-24T09:57:41;9.00;;;5.88;;
67904;SDS011;54709;43.614;1.576;2022-12-24T10:00:15;8.10;;;5.95;;
67904;SDS011;54709;43.614;1.576;2022-12-24T10:02:52;9.25;;;5.72;;
67904;SDS011;54709;43.614;1.576;2022-12-24T10:05:22;14.05;;;6.40;;
67904;SDS011;54709;43.614;1.576;2022-12-24T10:18:47;11.02;;;5.15;;
67904;SDS011;54709;43.614;1.576;2022-12-24T10:21:33;10.77;;;5.03;;
67904;SDS011;54709;43.614;1.576;2022-12-24T10:24:16;7.03;;;4.45;;
67904;SDS011;54709;43.614;1.576;2022-12-24T10:29:35;9.20;;;4.28;;
67904;SDS011;54709;43.614;1.576;2022-12-24T10:32:10;7.75;;;4.25;;
67904;SDS011;54709;43.614;1.576;2022-12-24T10:35:38;10.32;;;3.85;;
67904;SDS011;54709;43.614;1.576;2022-12-24T10:37:38;7.20;;;3.97;;
67904;SDS011;54709;43.614;1.576;2022-12-24T10:40:04;8.43;;;3.90;;
67904;SDS011;54709;43.614;1.576;2022-12-24T10:42:39;10.38;;;4.10;;
67904;SDS011;54709;43.614;1.576;2022-12-24T10:45:13;6.82;;;3.67;;
67904;SDS011;54709;43.614;1.576;2022-12-24T10:47:39;6.25;;;3.15;;
67904;SDS011;54709;43.614;1.576;2022-12-24T10:50:12;5.13;;;3.05;;
67904;SDS011;54709;43.614;1.576;2022-12-24T10:52:41;9.57;;;3.72;;
67904;SDS011;54709;43.614;1.576;2022-12-24T10:57:40;7.32;;;3.10;;
67904;SDS011;54709;43.614;1.576;2022-12-24T11:00:06;5.22;;;2.70;;
67904;SDS011;54709;43.614;1.576;2022-12-24T11:02:42;5.60;;;2.70;;
67904;SDS011;54709;43.614;1.576;2022-12-24T11:05:28;6.18;;;2.90;;
67904;SDS011;54709;43.614;1.576;2022-12-24T11:08:02;6.25;;;2.90;;
67904;SDS011;54709;43.614;1.576;2022-12-24T11:10:39;5.45;;;3.00;;
67904;SDS011;54709;43.614;1.576;2022-12-24T11:13:17;5.03;;;2.90;;
67904;SDS011;54709;43.614;1.576;2022-12-24T11:15:47;3.67;;;2.50;;
67904;SDS011;54709;43.614;1.576;2022-12-24T11:18:16;5.35;;;2.50;;
67904;SDS011;54709;43.614;1.576;2022-12-24T11:20:41;4.63;;;2.40;;
67904;SDS011;54709;43.614;1.576;2022-12-24T11:23:14;4.20;;;2.17;;
67904;SDS011;54709;43.614;1.576;2022-12-24T11:25:40;4.65;;;2.40;;
67904;SDS011;54709;43.614;1.576;2022-12-24T11:28:12;4.40;;;2.20;;
67904;SDS011;54709;43.614;1.576;2022-12-24T11:31:04;6.82;;;2.25;;
67904;SDS011;54709;43.614;1.576;2022-12-24T11:33:45;6.28;;;2.10;;
67904;SDS011;54709;43.614;1.576;2022-12-24T11:36:11;6.18;;;2.47;;
67904;SDS011;54709;43.614;1.576;2022-12-24T11:38:37;5.28;;;2.38;;
67904;SDS011;54709;43.614;1.576;2022-12-24T11:41:10;7.20;;;2.58;;
67904;SDS011;54709;43.614;1.576;2022-12-24T11:43:37;5.93;;;2.33;;
67904;SDS011;54709;43.614;1.576;2022-12-24T11:46:21;6.68;;;2.20;;
67904;SDS011;54709;43.614;1.576;2022-12-24T11:51:30;3.97;;;2.13;;
67904;SDS011;54709;43.614;1.576;2022-12-24T11:54:08;4.03;;;2.08;;
67904;SDS011;54709;43.614;1.576;2022-12-24T11:56:40;5.50;;;2.50;;
67904;SDS011;54709;43.614;1.576;2022-12-24T11:59:11;5.10;;;2.08;;
67904;SDS011;54709;43.614;1.576;2022-12-24T12:01:42;6.65;;;1.92;;
67904;SDS011;54709;43.614;1.576;2022-12-24T12:04:20;3.85;;;1.90;;
67904;SDS011;54709;43.614;1.576;2022-12-24T12:06:54;3.08;;;1.83;;
67904;SDS011;54709;43.614;1.576;2022-12-24T12:09:26;8.80;;;1.80;;
67904;SDS011;54709;43.614;1.576;2022-12-24T12:12:27;4.17;;;2.40;;
67904;SDS011;54709;43.614;1.576;2022-12-24T12:15:09;4.25;;;1.95;;
67904;SDS011;54709;43.614;1.576;2022-12-24T12:17:45;5.75;;;2.00;;
67904;SDS011;54709;43.614;1.576;2022-12-24T12:20:22;5.15;;;1.85;;
67904;SDS011;54709;43.614;1.576;2022-12-24T12:30:56;4.18;;;2.13;;
67904;SDS011;54709;43.614;1.576;2022-12-24T12:33:48;3.88;;;1.98;;
67904;SDS011;54709;43.614;1.576;2022-12-24T12:36:25;4.53;;;2.05;;
67904;SDS011;54709;43.614;1.576;2022-12-24T12:38:55;6.68;;;2.10;;
67904;SDS011;54709;43.614;1.576;2022-12-24T12:44:20;3.47;;;1.92;;
67904;SDS011;54709;43.614;1.576;2022-12-24T12:46:57;3.03;;;1.88;;
67904;SDS011;54709;43.614;1.576;2022-12-24T12:57:27;4.78;;;1.98;;
67904;SDS011;54709;43.614;1.576;2022-12-24T13:00:01;5.47;;;2.38;;
67904;SDS011;54709;43.614;1.576;2022-12-24T13:10:53;5.28;;;2.22;;
67904;SDS011;54709;43.614;1.576;2022-12-24T13:16:16;4.85;;;2.45;;
67904;SDS011;54709;43.614;1.576;2022-12-24T13:21:24;3.70;;;2.22;;
67904;SDS011;54709;43.614;1.576;2022-12-24T13:23:50;3.30;;;2.05;;
67904;SDS011;54709;43.614;1.576;2022-12-24T13:26:29;5.43;;;2.30;;
67904;SDS011;54709;43.614;1.576;2022-12-24T13:28:54;4.90;;;2.30;;
67904;SDS011;54709;43.614;1.576;2022-12-24T13:34:54;3.72;;;2.33;;
67904;SDS011;54709;43.614;1.576;2022-12-24T13:53:01;3.92;;;2.38;;
67904;SDS011;54709;43.614;1.576;2022-12-24T13:55:27;5.22;;;2.42;;
67904;SDS011;54709;43.614;1.576;2022-12-24T13:57:55;4.05;;;2.20;;
67904;SDS011;54709;43.614;1.576;2022-12-24T14:00:23;5.22;;;2.45;;
67904;SDS011;54709;43.614;1.576;2022-12-24T14:02:55;3.47;;;2.22;;
67904;SDS011;54709;43.614;1.576;2022-12-24T14:08:08;3.95;;;2.30;;
67904;SDS011;54709;43.614;1.576;2022-12-24T14:16:12;5.00;;;2.05;;
67904;SDS011;54709;43.614;1.576;2022-12-24T14:18:44;4.22;;;2.17;;
67904;SDS011;54709;43.614;1.576;2022-12-24T14:21:24;2.83;;;2.20;;
67904;SDS011;54709;43.614;1.576;2022-12-24T14:26:23;4.20;;;2.30;;
67904;SDS011;54709;43.614;1.576;2022-12-24T14:28:54;3.80;;;2.25;;
67904;SDS011;54709;43.614;1.576;2022-12-24T14:31:22;4.15;;;2.00;;
67904;SDS011;54709;43.614;1.576;2022-12-24T14:33:47;5.90;;;2.58;;
67904;SDS011;54709;43.614;1.576;2022-12-24T14:36:14;7.38;;;2.58;;
67904;SDS011;54709;43.614;1.576;2022-12-24T14:38:43;5.65;;;2.67;;
67904;SDS011;54709;43.614;1.576;2022-12-24T14:42:16;3.95;;;2.47;;
67904;SDS011;54709;43.614;1.576;2022-12-24T14:44:25;5.38;;;2.42;;
67904;SDS011;54709;43.614;1.576;2022-12-24T14:52:55;5.50;;;2.53;;
67904;SDS011;54709;43.614;1.576;2022-12-24T14:55:35;7.25;;;2.70;;
67904;SDS011;54709;43.614;1.576;2022-12-24T14:58:20;6.00;;;2.67;;
67904;SDS011;54709;43.614;1.576;2022-12-24T15:00:47;4.03;;;2.53;;
67904;SDS011;54709;43.614;1.576;2022-12-24T15:03:14;4.85;;;2.72;;
67904;SDS011;54709;43.614;1.576;2022-12-24T15:05:40;5.72;;;2.63;;
67904;SDS011;54709;43.614;1.576;2022-12-24T15:08:11;6.05;;;2.63;;
67904;SDS011;54709;43.614;1.576;2022-12-24T15:10:42;5.00;;;2.35;;
67904;SDS011;54709;43.614;1.576;2022-12-24T15:13:54;5.07;;;2.70;;
67904;SDS011;54709;43.614;1.576;2022-12-24T15:15:54;4.18;;;2.72;;
67904;SDS011;54709;43.614;1.576;2022-12-24T15:18:21;5.68;;;2.63;;
67904;SDS011;54709;43.614;1.576;2022-12-24T15:20:50;4.85;;;2.67;;
67904;SDS011;54709;43.614;1.576;2022-12-24T15:23:18;13.88;;;2.95;;
67904;SDS011;54709;43.614;1.576;2022-12-24T15:25:50;4.55;;;2.70;;
67904;SDS011;54709;43.614;1.576;2022-12-24T15:28:19;7.45;;;2.53;;
67904;SDS011;54709;43.614;1.576;2022-12-24T15:30:46;5.43;;;3.00;;
67904;SDS011;54709;43.614;1.576;2022-12-24T15:33:12;7.10;;;3.03;;
67904;SDS011;54709;43.614;1.576;2022-12-24T15:35:56;5.57;;;2.97;;
67904;SDS011;54709;43.614;1.576;2022-12-24T15:40:52;4.13;;;2.90;;
67904;SDS011;54709;43.614;1.576;2022-12-24T15:43:18;7.13;;;3.17;;
67904;SDS011;54709;43.614;1.576;2022-12-24T15:45:44;7.03;;;3.35;;
67904;SDS011;54709;43.614;1.576;2022-12-24T15:48:10;5.30;;;3.30;;
67904;SDS011;54709;43.614;1.576;2022-12-24T15:50:37;6.72;;;3.50;;
67904;SDS011;54709;43.614;1.576;2022-12-24T15:53:42;8.30;;;4.30;;
67904;SDS011;54709;43.614;1.576;2022-12-24T15:58:37;13.40;;;6.38;;
67904;SDS011;54709;43.614;1.576;2022-12-24T16:06:14;9.25;;;4.80;;
67904;SDS011;54709;43.614;1.576;2022-12-24T16:08:40;11.10;;;5.38;;
67904;SDS011;54709;43.614;1.576;2022-12-24T16:11:13;9.45;;;5.18;;
67904;SDS011;54709;43.614;1.576;2022-12-24T16:13:42;9.43;;;5.25;;
67904;SDS011;54709;43.614;1.576;2022-12-24T16:16:33;10.07;;;5.13;;
67904;SDS011;54709;43.614;1.576;2022-12-24T16:19:03;9.82;;;4.95;;
67904;SDS011;54709;43.614;1.576;2022-12-24T16:21:31;11.70;;;4.78;;
67904;SDS011;54709;43.614;1.576;2022-12-24T16:24:15;12.10;;;5.53;;
67904;SDS011;54709;43.614;1.576;2022-12-24T16:26:43;13.73;;;5.70;;
67904;SDS011;54709;43.614;1.576;2022-12-24T16:29:09;7.97;;;5.00;;
67904;SDS011;54709;43.614;1.576;2022-12-24T16:31:36;10.20;;;5.00;;
67904;SDS011;54709;43.614;1.576;2022-12-24T16:34:03;12.93;;;6.22;;
67904;SDS011;54709;43.614;1.576;2022-12-24T16:36:29;10.57;;;5.72;;
67904;SDS011;54709;43.614;1.576;2022-12-24T16:38:56;14.30;;;6.63;;
67904;SDS011;54709;43.614;1.576;2022-12-24T16:42:01;12.43;;;6.18;;
67904;SDS011;54709;43.614;1.576;2022-12-24T16:44:46;11.45;;;6.10;;
67904;SDS011;54709;43.614;1.576;2022-12-24T16:47:28;14.13;;;6.43;;
67904;SDS011;54709;43.614;1.576;2022-12-24T16:49:56;13.35;;;6.30;;
67904;SDS011;54709;43.614;1.576;2022-12-24T16:52:23;17.45;;;6.13;;